Camp Appalachia, Virginia
Current Conditions -  °F | °C
As of 10:15 PM on Monday 26 Jan 2015 (Local Time) from KHSP Reporting Station
Light Snow Light Snow  
Wind Chill:   Ceiling: 200
Heat Index: 21°   Visibility: 0.75mi
Dew Point: 21°   Wind: 18mph
Humidity: 100%   Direction: 290°WNW
Pressure: 29.59"   Gusts: NA
Location:  37.7731°N, 80.0632°W
Report Text: KHSP 270315Z AUTO 29016KT 3/4SM -SN OVC002 M06/M06 A2959 RMK AO2 T10621062
Loading
Personal Weather Stations






























Interactive Weather Map New forecast layout! Learn more

10-Day Weather Forecast

Advertisements
Track Severe Weather on mobile